createdAt,value
2022-12-01T00:01:06.619Z,7.94
2022-12-01T00:03:35.029Z,7.94
2022-12-01T00:06:11.555Z,8.01
2022-12-01T00:08:38.250Z,8.03
2022-12-01T00:11:07.527Z,8.10
2022-12-01T00:13:34.930Z,7.90
2022-12-01T00:16:16.408Z,7.92
2022-12-01T00:18:43.891Z,8.00
2022-12-01T00:21:15.093Z,7.88
2022-12-01T00:23:47.312Z,7.92
2022-12-01T00:26:14.953Z,7.85
2022-12-01T00:28:41.751Z,7.82
2022-12-01T00:31:12.449Z,7.89
2022-12-01T00:33:39.701Z,7.72
2022-12-01T00:36:07.454Z,7.80
2022-12-01T00:38:34.534Z,7.76
2022-12-01T00:41:01.575Z,7.79
2022-12-01T00:43:28.178Z,7.78
2022-12-01T00:45:56.205Z,7.77
2022-12-01T00:48:23.189Z,7.92
2022-12-01T00:50:54.328Z,7.95
2022-12-01T00:53:22.194Z,7.92
2022-12-01T00:55:49.317Z,7.89
2022-12-01T00:58:15.938Z,7.93
2022-12-01T01:00:42.842Z,8.01
2022-12-01T01:03:10.422Z,7.94
2022-12-01T01:05:41.357Z,7.72
2022-12-01T01:08:13.028Z,7.84
2022-12-01T01:10:40.994Z,7.85
2022-12-01T01:13:07.718Z,7.72
2022-12-01T01:15:34.907Z,7.79
2022-12-01T01:18:02.312Z,7.71
2022-12-01T01:20:29.234Z,7.86
2022-12-01T01:22:56.122Z,7.87
2022-12-01T01:25:22.980Z,7.88
2022-12-01T01:27:49.778Z,7.81
2022-12-01T01:30:16.792Z,7.77
2022-12-01T01:32:43.438Z,7.81
2022-12-01T01:35:09.988Z,7.84
2022-12-01T01:37:36.545Z,7.95
2022-12-01T01:40:03.281Z,7.89
2022-12-01T01:42:30.158Z,7.82
2022-12-01T01:44:58.564Z,7.85
2022-12-01T01:47:33.024Z,7.90
2022-12-01T01:50:06.385Z,7.85
2022-12-01T01:52:35.909Z,7.66
2022-12-01T01:55:02.855Z,7.65
2022-12-01T01:57:32.041Z,7.64
2022-12-01T02:00:09.699Z,7.70
2022-12-01T02:02:44.578Z,7.77
2022-12-01T02:05:17.105Z,7.80
2022-12-01T02:07:45.333Z,7.64
2022-12-01T02:10:14.861Z,7.91
2022-12-01T02:13:08.636Z,8.01
2022-12-01T02:15:38.681Z,7.90
2022-12-01T02:18:11.148Z,7.78
2022-12-01T02:20:57.166Z,7.95
2022-12-01T02:23:26.390Z,7.92
2022-12-01T02:26:43.597Z,7.71
2022-12-01T02:29:30.110Z,7.83
2022-12-01T02:32:18.185Z,7.64
2022-12-01T02:35:03.559Z,7.58
2022-12-01T02:37:38.040Z,7.68
2022-12-01T02:40:44.690Z,7.69
2022-12-01T02:43:19.338Z,7.79
2022-12-01T02:45:51.913Z,7.75
2022-12-01T02:48:37.976Z,7.62
2022-12-01T02:51:10.305Z,7.77
2022-12-01T02:53:36.913Z,7.80
2022-12-01T02:56:07.761Z,7.81
2022-12-01T02:58:34.287Z,7.91
2022-12-01T03:01:18.231Z,7.77
2022-12-01T03:03:53.978Z,7.71
2022-12-01T03:06:44.224Z,7.69
2022-12-01T03:09:25.318Z,7.75
2022-12-01T03:12:10.495Z,7.60
2022-12-01T03:14:46.602Z,7.75
2022-12-01T03:17:24.972Z,7.70
2022-12-01T03:20:24.932Z,7.75
2022-12-01T03:22:59.227Z,7.70
2022-12-01T03:25:28.151Z,7.88
2022-12-01T03:28:20.169Z,7.87
2022-12-01T03:30:46.315Z,7.81
2022-12-01T03:33:21.225Z,7.83
2022-12-01T03:35:56.020Z,7.84
2022-12-01T03:38:29.249Z,7.74
2022-12-01T03:41:05.336Z,7.84
2022-12-01T03:43:38.326Z,7.81
2022-12-01T03:46:17.697Z,7.59
2022-12-01T03:48:45.199Z,7.58
2022-12-01T03:51:37.993Z,7.80
2022-12-01T03:54:27.003Z,7.75
2022-12-01T03:56:59.698Z,7.66
2022-12-01T03:59:28.077Z,7.75
2022-12-01T04:01:54.985Z,7.78
2022-12-01T04:04:21.830Z,7.71
2022-12-01T04:06:50.547Z,7.65
2022-12-01T04:09:17.299Z,7.75
2022-12-01T04:12:02.627Z,7.83
2022-12-01T04:14:30.142Z,7.66
2022-12-01T04:16:56.713Z,7.65
2022-12-01T04:19:23.321Z,7.64
2022-12-01T04:21:49.846Z,7.64
2022-12-01T04:24:16.472Z,7.56
2022-12-01T04:26:43.384Z,7.52
2022-12-01T04:29:10.861Z,7.60
2022-12-01T04:31:37.561Z,7.59
2022-12-01T04:34:04.818Z,7.70
2022-12-01T04:36:33.581Z,7.79
2022-12-01T04:39:01.299Z,7.66
2022-12-01T04:41:27.987Z,7.64
2022-12-01T04:43:55.489Z,7.64
2022-12-01T04:46:22.928Z,7.48
2022-12-01T04:48:49.924Z,7.53
2022-12-01T04:51:16.699Z,7.59
2022-12-01T04:53:43.258Z,7.50
2022-12-01T04:56:09.901Z,7.63
2022-12-01T04:58:39.979Z,7.68
2022-12-01T05:01:13.379Z,7.79
2022-12-01T05:03:43.253Z,7.89
2022-12-01T05:06:12.813Z,7.93
2022-12-01T05:08:39.669Z,7.81
2022-12-01T05:11:07.876Z,7.94
2022-12-01T05:13:39.798Z,7.98
2022-12-01T05:16:08.013Z,7.77
2022-12-01T05:18:35.132Z,7.88
2022-12-01T05:21:03.832Z,7.88
2022-12-01T05:23:33.173Z,7.77
2022-12-01T05:26:00.917Z,7.52
2022-12-01T05:28:28.166Z,7.58
2022-12-01T05:30:55.251Z,7.73
2022-12-01T05:33:23.251Z,7.73
2022-12-01T05:35:50.677Z,7.66
2022-12-01T05:38:18.121Z,7.59
2022-12-01T05:40:55.496Z,7.50
2022-12-01T05:43:28.661Z,7.71
2022-12-01T05:45:56.977Z,7.74
2022-12-01T05:48:23.881Z,7.67
2022-12-01T05:50:50.520Z,7.88
2022-12-01T05:53:18.328Z,7.67
2022-12-01T05:55:45.243Z,7.63
2022-12-01T05:58:13.185Z,7.75
2022-12-01T06:00:45.731Z,7.83
2022-12-01T06:03:13.562Z,7.75
2022-12-01T06:05:40.836Z,7.81
2022-12-01T06:08:08.347Z,7.75
2022-12-01T06:10:35.339Z,7.81
2022-12-01T06:13:02.393Z,7.94
2022-12-01T06:15:29.001Z,7.94
2022-12-01T06:17:59.077Z,7.90
2022-12-01T06:20:26.175Z,7.79
2022-12-01T06:22:52.838Z,7.68
2022-12-01T06:25:19.488Z,7.62
2022-12-01T06:27:46.916Z,7.69
2022-12-01T06:30:13.699Z,7.67
2022-12-01T06:32:40.171Z,7.62
2022-12-01T06:35:07.134Z,7.63
2022-12-01T06:37:33.729Z,7.65
2022-12-01T06:40:00.318Z,7.70
2022-12-01T06:42:29.846Z,7.73
2022-12-01T06:44:56.389Z,7.94
2022-12-01T06:47:22.940Z,7.78
2022-12-01T06:49:49.691Z,7.95
2022-12-01T06:52:16.454Z,7.73
2022-12-01T06:54:43.194Z,7.62
2022-12-01T06:57:10.009Z,7.57
2022-12-01T06:59:36.630Z,7.80
2022-12-01T07:02:03.734Z,7.81
2022-12-01T07:04:30.920Z,7.79
2022-12-01T07:06:57.954Z,7.83
2022-12-01T07:09:24.527Z,7.78
2022-12-01T07:11:51.110Z,7.71
2022-12-01T07:14:23.841Z,7.64
2022-12-01T07:16:51.012Z,7.73
2022-12-01T07:19:17.872Z,7.74
2022-12-01T07:21:44.458Z,7.62
2022-12-01T07:24:12.578Z,7.62
2022-12-01T07:26:41.054Z,7.67
2022-12-01T07:29:09.123Z,7.68
2022-12-01T07:31:36.977Z,7.82
2022-12-01T07:34:04.466Z,7.90
2022-12-01T07:36:31.528Z,7.92
2022-12-01T07:38:58.312Z,7.90
2022-12-01T07:41:24.928Z,7.81
2022-12-01T07:43:51.516Z,7.83
2022-12-01T07:46:23.787Z,7.73
2022-12-01T07:48:53.000Z,7.68
2022-12-01T07:51:21.295Z,7.66
2022-12-01T07:53:51.950Z,7.58
2022-12-01T07:56:20.544Z,7.61
2022-12-01T07:58:47.059Z,7.64
2022-12-01T08:01:21.878Z,7.73
2022-12-01T08:03:53.538Z,7.60
2022-12-01T08:06:20.580Z,7.64
2022-12-01T08:08:47.557Z,7.82
2022-12-01T08:11:23.160Z,7.83
2022-12-01T08:13:51.000Z,7.68
2022-12-01T08:16:19.875Z,7.80
2022-12-01T08:18:47.214Z,7.68
2022-12-01T08:21:18.971Z,7.60
2022-12-01T08:23:45.574Z,7.78
2022-12-01T08:26:15.942Z,7.67
2022-12-01T08:28:43.521Z,7.56
2022-12-01T08:31:16.708Z,7.50
2022-12-01T08:33:43.409Z,7.51
2022-12-01T08:36:10.196Z,7.74
2022-12-01T08:38:37.314Z,7.70
2022-12-01T08:41:08.677Z,7.73
2022-12-01T08:46:34.712Z,7.88
2022-12-01T08:49:02.696Z,7.74
2022-12-01T08:51:29.276Z,7.78
2022-12-01T08:53:58.311Z,7.89
2022-12-01T08:56:32.749Z,7.92
2022-12-01T08:58:59.711Z,7.80
2022-12-01T09:01:27.101Z,7.78
2022-12-01T09:04:06.177Z,7.70
2022-12-01T09:06:38.303Z,7.77
2022-12-01T09:09:05.450Z,7.62
2022-12-01T09:11:32.629Z,7.76
2022-12-01T09:14:00.554Z,7.78
2022-12-01T09:16:27.422Z,7.77
2022-12-01T09:18:54.921Z,7.60
2022-12-01T09:21:24.817Z,7.68
2022-12-01T09:23:53.629Z,7.71
2022-12-01T09:26:20.550Z,7.80
2022-12-01T09:28:48.711Z,7.93
2022-12-01T09:31:16.904Z,8.00
2022-12-01T09:33:44.602Z,7.98
2022-12-01T09:36:11.337Z,7.87
2022-12-01T09:38:39.289Z,7.79
2022-12-01T09:41:11.811Z,7.71
2022-12-01T09:44:05.878Z,7.56
2022-12-01T09:46:40.642Z,7.73
2022-12-01T09:49:36.761Z,7.70
2022-12-01T09:52:03.906Z,7.84
2022-12-01T09:54:30.443Z,7.74
2022-12-01T09:56:59.423Z,7.62
2022-12-01T09:59:32.637Z,7.60
2022-12-01T10:02:02.564Z,7.73
2022-12-01T10:04:36.112Z,7.77
2022-12-01T10:07:29.479Z,7.79
2022-12-01T10:10:12.058Z,7.81
2022-12-01T10:12:42.203Z,7.96
2022-12-01T10:15:36.745Z,7.94
2022-12-01T10:18:25.305Z,7.64
2022-12-01T10:21:08.818Z,7.75
2022-12-01T10:23:57.915Z,7.84
2022-12-01T10:26:32.079Z,7.75
2022-12-01T10:29:16.374Z,7.65
2022-12-01T10:31:54.053Z,7.76
2022-12-01T10:34:22.649Z,7.85
2022-12-01T10:36:49.941Z,7.90
2022-12-01T10:39:28.695Z,7.85
2022-12-01T10:42:05.682Z,7.73
2022-12-01T10:44:33.047Z,7.85
2022-12-01T10:46:59.881Z,7.89
2022-12-01T10:49:40.992Z,7.81
2022-12-01T10:52:08.454Z,7.82
2022-12-01T10:54:38.171Z,7.93
2022-12-01T10:57:06.753Z,7.99
2022-12-01T10:59:44.414Z,8.01
2022-12-01T11:02:26.671Z,8.00
2022-12-01T11:04:54.871Z,7.87
2022-12-01T11:07:41.641Z,7.92
2022-12-01T11:10:15.341Z,7.94
2022-12-01T11:12:44.681Z,7.98
2022-12-01T11:15:21.358Z,7.81
2022-12-01T11:17:48.604Z,7.71
2022-12-01T11:20:35.801Z,7.67
2022-12-01T11:23:25.597Z,7.71
2022-12-01T11:26:00.253Z,7.63
2022-12-01T11:28:27.764Z,7.85
2022-12-01T11:30:58.630Z,7.98
2022-12-01T11:33:26.186Z,7.80
2022-12-01T11:35:52.843Z,7.93
2022-12-01T11:38:30.947Z,7.97
2022-12-01T11:40:58.405Z,8.03
2022-12-01T11:43:33.220Z,8.00
2022-12-01T11:46:03.979Z,7.98
2022-12-01T11:48:34.449Z,8.03
2022-12-01T11:51:09.051Z,7.95
2022-12-01T11:53:38.786Z,7.84
2022-12-01T11:56:28.734Z,8.02
2022-12-01T11:59:10.384Z,7.96
2022-12-01T12:01:55.304Z,7.94
2022-12-01T12:04:38.704Z,7.88
2022-12-01T12:07:42.372Z,7.79
2022-12-01T12:10:30.413Z,7.90
2022-12-01T12:13:15.088Z,7.92
2022-12-01T12:15:56.918Z,7.89
2022-12-01T12:18:35.733Z,7.95
2022-12-01T12:21:31.642Z,7.92
2022-12-01T12:24:16.297Z,7.98
2022-12-01T12:26:53.298Z,8.12
2022-12-01T12:29:28.707Z,8.09
2022-12-01T12:32:13.759Z,7.93
2022-12-01T12:34:54.837Z,7.96
2022-12-01T12:38:01.317Z,8.07
2022-12-01T12:40:56.381Z,7.93
2022-12-01T12:43:52.026Z,8.08
2022-12-01T12:46:37.281Z,8.19
2022-12-01T12:49:19.283Z,8.17
2022-12-01T12:51:52.787Z,8.16
2022-12-01T12:54:33.627Z,8.05
2022-12-01T12:57:05.553Z,8.09
2022-12-01T12:59:48.464Z,8.13
2022-12-01T13:02:27.144Z,7.87
2022-12-01T13:05:25.883Z,7.91
2022-12-01T13:08:11.235Z,8.01
2022-12-01T13:10:49.774Z,7.93
2022-12-01T13:13:25.813Z,7.82
2022-12-01T13:15:55.666Z,7.90
2022-12-01T13:18:22.171Z,7.92
2022-12-01T13:20:52.129Z,7.94
2022-12-01T13:23:21.739Z,7.85
2022-12-01T13:25:52.796Z,8.03
2022-12-01T13:28:29.018Z,8.06
2022-12-01T13:30:59.735Z,8.08
2022-12-01T13:33:26.890Z,7.99
2022-12-01T13:36:22.717Z,7.97
2022-12-01T13:38:43.306Z,7.92
2022-12-01T13:41:22.841Z,8.09
2022-12-01T13:44:22.508Z,7.74
2022-12-01T13:47:21.179Z,7.90
2022-12-01T13:49:50.369Z,7.93
2022-12-01T13:52:22.968Z,7.94
2022-12-01T13:55:20.353Z,7.98
2022-12-01T13:58:14.001Z,8.19
2022-12-01T14:00:42.947Z,8.08
2022-12-01T14:03:12.688Z,8.08
2022-12-01T14:05:39.293Z,8.11
2022-12-01T14:08:23.519Z,7.90
2022-12-01T14:11:07.565Z,7.91
2022-12-01T14:13:55.164Z,7.99
2022-12-01T14:16:23.079Z,7.92
2022-12-01T14:18:57.515Z,7.93
2022-12-01T14:21:43.534Z,7.94
2022-12-01T14:24:22.166Z,7.88
2022-12-01T14:26:49.577Z,7.93
2022-12-01T14:29:33.032Z,7.80
2022-12-01T14:32:20.182Z,7.81
2022-12-01T14:34:51.743Z,7.78
2022-12-01T14:37:25.476Z,7.75
2022-12-01T14:40:17.584Z,7.62
2022-12-01T14:43:07.249Z,7.57
2022-12-01T14:45:40.300Z,7.48
2022-12-01T14:48:15.341Z,7.66
2022-12-01T14:50:52.025Z,7.67
2022-12-01T14:53:27.035Z,7.62
2022-12-01T14:55:57.185Z,7.62
2022-12-01T14:58:28.278Z,7.58
2022-12-01T15:01:07.157Z,7.63
2022-12-01T15:03:41.609Z,7.72
2022-12-01T15:06:09.054Z,7.83
2022-12-01T15:08:49.184Z,7.69
2022-12-01T15:11:26.019Z,7.79
2022-12-01T15:13:57.512Z,7.73
2022-12-01T15:16:40.708Z,7.74
2022-12-01T15:19:30.481Z,7.57
2022-12-01T15:21:58.387Z,7.56
2022-12-01T15:24:27.701Z,7.56
2022-12-01T15:27:02.113Z,7.54
2022-12-01T15:29:42.904Z,7.41
2022-12-01T15:32:15.999Z,7.42
2022-12-01T15:34:47.956Z,7.57
2022-12-01T15:37:18.613Z,7.40
2022-12-01T15:39:49.310Z,7.30
2022-12-01T15:42:31.846Z,7.33
2022-12-01T15:45:20.232Z,7.54
2022-12-01T15:47:50.981Z,7.58
2022-12-01T15:50:37.691Z,7.53
2022-12-01T15:53:26.371Z,7.70
2022-12-01T15:55:58.810Z,7.59
2022-12-01T15:58:36.202Z,7.65
2022-12-01T16:01:12.704Z,7.68
2022-12-01T16:03:53.928Z,7.56
2022-12-01T16:06:25.460Z,7.38
2022-12-01T16:08:59.324Z,7.40
2022-12-01T16:11:27.275Z,7.60
2022-12-01T16:14:22.039Z,7.73
2022-12-01T16:16:49.838Z,7.45
2022-12-01T16:19:16.640Z,7.59
2022-12-01T16:21:52.884Z,7.53
2022-12-01T16:24:28.321Z,7.68
2022-12-01T16:27:03.064Z,7.71
2022-12-01T16:29:34.916Z,7.61
2022-12-01T16:32:22.361Z,7.49
2022-12-01T16:34:53.159Z,7.45
2022-12-01T16:37:21.530Z,7.34
2022-12-01T16:39:48.350Z,7.28
2022-12-01T16:42:17.442Z,7.45
2022-12-01T16:44:46.320Z,7.56
2022-12-01T16:47:22.764Z,7.43
2022-12-01T16:49:50.733Z,7.37
2022-12-01T16:55:05.041Z,7.43
2022-12-01T16:57:31.546Z,7.38
2022-12-01T16:59:58.097Z,7.41
2022-12-01T17:02:24.665Z,7.48
2022-12-01T17:04:51.733Z,7.52
2022-12-01T17:07:18.412Z,7.62
2022-12-01T17:09:45.082Z,7.55
2022-12-01T17:12:11.565Z,7.45
2022-12-01T17:14:38.119Z,7.26
2022-12-01T17:17:04.717Z,7.26
2022-12-01T17:19:31.306Z,7.45
2022-12-01T17:21:58.092Z,7.42
2022-12-01T17:24:25.835Z,7.56
2022-12-01T17:26:52.770Z,7.54
2022-12-01T17:29:19.370Z,7.36
2022-12-01T17:31:45.872Z,7.20
2022-12-01T17:34:12.456Z,7.12
2022-12-01T17:36:39.014Z,7.20
2022-12-01T17:39:05.975Z,7.16
2022-12-01T17:41:35.495Z,7.01
2022-12-01T17:44:03.842Z,7.03
2022-12-01T17:46:31.070Z,7.09
2022-12-01T17:48:58.326Z,7.15
2022-12-01T17:51:24.946Z,7.13
2022-12-01T17:53:53.188Z,7.11
2022-12-01T17:56:19.839Z,7.02
2022-12-01T17:58:49.221Z,7.07
2022-12-01T18:01:18.221Z,7.06
2022-12-01T18:03:45.121Z,7.02
2022-12-01T18:06:12.673Z,6.99
2022-12-01T18:08:40.502Z,6.96
2022-12-01T18:11:12.541Z,6.89
2022-12-01T18:13:43.871Z,6.83
2022-12-01T18:16:14.875Z,6.82
2022-12-01T18:18:41.880Z,6.82
2022-12-01T18:21:10.942Z,6.70
2022-12-01T18:23:37.793Z,6.72
2022-12-01T18:26:15.674Z,6.85
2022-12-01T18:28:44.124Z,6.93
2022-12-01T18:31:14.267Z,6.82
2022-12-01T18:33:43.148Z,6.77
2022-12-01T18:36:13.392Z,7.00
2022-12-01T18:38:40.595Z,6.81
2022-12-01T18:41:07.850Z,6.81
2022-12-01T18:43:34.677Z,6.56
2022-12-01T18:46:03.197Z,6.76
2022-12-01T18:48:30.267Z,6.72
2022-12-01T18:51:00.689Z,6.97
2022-12-01T18:53:27.270Z,6.75
2022-12-01T18:55:53.777Z,6.77
2022-12-01T18:58:20.359Z,6.71
2022-12-01T19:00:47.467Z,6.65
2022-12-01T19:03:14.226Z,6.61
2022-12-01T19:05:41.205Z,6.67
2022-12-01T19:08:08.036Z,6.57
2022-12-01T19:10:34.643Z,6.59
2022-12-01T19:13:01.493Z,6.58
2022-12-01T19:15:28.791Z,6.52
2022-12-01T19:17:55.888Z,6.65
2022-12-01T19:20:22.531Z,6.77
2022-12-01T19:22:49.178Z,6.68
2022-12-01T19:25:15.909Z,6.72
2022-12-01T19:27:42.626Z,6.59
2022-12-01T19:30:09.706Z,6.59
2022-12-01T19:32:36.587Z,6.64
2022-12-01T19:35:03.424Z,6.74
2022-12-01T19:37:30.112Z,6.70
2022-12-01T19:39:56.589Z,6.63
2022-12-01T19:42:23.144Z,6.62
2022-12-01T19:44:50.022Z,6.46
2022-12-01T19:47:21.989Z,6.64
2022-12-01T19:49:49.659Z,6.67
2022-12-01T19:52:16.245Z,6.68
2022-12-01T19:54:42.980Z,6.70
2022-12-01T19:57:09.554Z,6.81
2022-12-01T19:59:36.545Z,7.01
2022-12-01T20:02:03.098Z,6.83
2022-12-01T20:04:29.723Z,6.76
2022-12-01T20:06:56.261Z,6.78
2022-12-01T20:09:22.897Z,6.79
2022-12-01T20:11:49.525Z,6.63
2022-12-01T20:14:16.262Z,6.52
2022-12-01T20:16:42.904Z,6.65
2022-12-01T20:19:10.241Z,6.55
2022-12-01T20:21:43.106Z,6.65
2022-12-01T20:24:15.412Z,6.54
2022-12-01T20:26:52.893Z,6.63
2022-12-01T20:29:26.297Z,6.55
2022-12-01T20:31:55.208Z,6.70
2022-12-01T20:34:27.484Z,6.79
2022-12-01T20:36:55.627Z,6.66
2022-12-01T20:39:22.736Z,6.78
2022-12-01T20:41:49.568Z,6.70
2022-12-01T20:44:17.045Z,6.70
2022-12-01T20:46:47.936Z,6.71
2022-12-01T20:49:16.670Z,6.65
2022-12-01T20:51:43.431Z,6.33
2022-12-01T20:54:29.781Z,6.34
2022-12-01T20:56:57.638Z,6.39
2022-12-01T20:59:24.332Z,6.29
2022-12-01T21:01:50.982Z,6.43
2022-12-01T21:04:17.613Z,6.53
2022-12-01T21:06:44.301Z,6.50
2022-12-01T21:09:12.293Z,6.22
2022-12-01T21:12:04.264Z,6.18
2022-12-01T21:14:37.762Z,6.34
2022-12-01T21:17:19.764Z,6.30
2022-12-01T21:19:57.112Z,6.06
2022-12-01T21:22:24.770Z,6.11
2022-12-01T21:24:51.931Z,6.22
2022-12-01T21:27:18.767Z,6.08
2022-12-01T21:29:47.668Z,6.02
2022-12-01T21:32:22.559Z,6.00
2022-12-01T21:34:49.925Z,6.10
2022-12-01T21:37:24.661Z,6.01
2022-12-01T21:39:53.120Z,6.08
2022-12-01T21:42:22.633Z,6.03
2022-12-01T21:44:49.732Z,6.26
2022-12-01T21:47:23.697Z,6.24
2022-12-01T21:49:56.733Z,6.13
2022-12-01T21:52:39.056Z,6.02
2022-12-01T21:55:32.931Z,5.96
2022-12-01T21:57:59.992Z,5.95
2022-12-01T22:00:32.906Z,5.87
2022-12-01T22:03:09.142Z,5.63
2022-12-01T22:05:56.156Z,5.67
2022-12-01T22:08:34.422Z,5.62
2022-12-01T22:11:21.865Z,5.91
2022-12-01T22:14:10.301Z,5.93
2022-12-01T22:16:44.063Z,6.01
2022-12-01T22:19:16.657Z,5.99
2022-12-01T22:21:49.110Z,5.96
2022-12-01T22:24:26.042Z,6.01
2022-12-01T22:27:27.108Z,6.13
2022-12-01T22:30:21.029Z,6.16
2022-12-01T22:32:57.011Z,6.16
2022-12-01T22:35:32.353Z,5.96
2022-12-01T22:38:11.183Z,5.99
2022-12-01T22:40:51.532Z,5.97
2022-12-01T22:43:18.215Z,6.13
2022-12-01T22:45:47.749Z,6.00
2022-12-01T22:48:40.220Z,5.94
2022-12-01T22:51:12.890Z,6.01
2022-12-01T22:53:41.095Z,5.86
2022-12-01T22:56:21.252Z,6.01
2022-12-01T22:58:47.957Z,5.93
2022-12-01T23:01:33.253Z,5.77
2022-12-01T23:04:21.665Z,5.74
2022-12-01T23:06:53.714Z,5.47
2022-12-01T23:09:21.973Z,5.53
2022-12-01T23:12:01.697Z,5.55
2022-12-01T23:14:28.818Z,5.57
2022-12-01T23:17:10.897Z,5.63
2022-12-01T23:19:37.556Z,5.49
2022-12-01T23:22:04.137Z,5.42
2022-12-01T23:24:33.921Z,5.48
2022-12-01T23:27:01.015Z,5.43
2022-12-01T23:29:27.919Z,5.32
2022-12-01T23:31:54.522Z,5.29
2022-12-01T23:34:21.081Z,5.10
2022-12-01T23:36:50.039Z,5.23
2022-12-01T23:39:18.683Z,5.23
2022-12-01T23:41:48.612Z,5.19
2022-12-01T23:44:22.972Z,5.15
2022-12-01T23:46:52.693Z,5.01
2022-12-01T23:49:22.370Z,5.07
2022-12-01T23:51:54.636Z,5.18
2022-12-01T23:54:31.440Z,5.27
2022-12-01T23:57:01.515Z,5.21
2022-12-01T23:59:29.793Z,5.29
